sensor_id;sensor_type;location;lat;lon;timestamp;pressure;altitude;pressure_sealevel;temperature
12430;BMP280;6279;42.192;24.326;2023-05-16T00:01:34;98910.25;;;14.74
12430;BMP280;6279;42.192;24.326;2023-05-16T00:03:59;98906.28;;;14.85
12430;BMP280;6279;42.192;24.326;2023-05-16T00:06:25;98902.47;;;14.87
12430;BMP280;6279;42.192;24.326;2023-05-16T00:08:50;98898.63;;;14.90
12430;BMP280;6279;42.192;24.326;2023-05-16T00:11:16;98899.84;;;14.87
12430;BMP280;6279;42.192;24.326;2023-05-16T00:13:42;98909.72;;;14.91
12430;BMP280;6279;42.192;24.326;2023-05-16T00:16:07;98901.06;;;14.91
12430;BMP280;6279;42.192;24.326;2023-05-16T00:18:34;98901.66;;;14.87
12430;BMP280;6279;42.192;24.326;2023-05-16T00:21:02;98900.25;;;14.91
12430;BMP280;6279;42.192;24.326;2023-05-16T00:23:29;98893.78;;;14.87
12430;BMP280;6279;42.192;24.326;2023-05-16T00:25:54;98888.38;;;14.94
12430;BMP280;6279;42.192;24.326;2023-05-16T00:28:20;98889.72;;;14.78
12430;BMP280;6279;42.192;24.326;2023-05-16T00:30:45;98890.47;;;14.66
12430;BMP280;6279;42.192;24.326;2023-05-16T00:33:10;98891.44;;;14.58
12430;BMP280;6279;42.192;24.326;2023-05-16T00:35:36;98898.16;;;14.67
12430;BMP280;6279;42.192;24.326;2023-05-16T00:38:01;98886.69;;;14.68
12430;BMP280;6279;42.192;24.326;2023-05-16T00:40:27;98881.63;;;14.67
12430;BMP280;6279;42.192;24.326;2023-05-16T00:42:52;98889.84;;;14.57
12430;BMP280;6279;42.192;24.326;2023-05-16T00:45:17;98892.09;;;14.67
12430;BMP280;6279;42.192;24.326;2023-05-16T00:47:43;98885.88;;;14.68
12430;BMP280;6279;42.192;24.326;2023-05-16T00:50:09;98891.31;;;14.66
12430;BMP280;6279;42.192;24.326;2023-05-16T00:52:34;98889.66;;;14.65
12430;BMP280;6279;42.192;24.326;2023-05-16T00:55:00;98891.31;;;14.66
12430;BMP280;6279;42.192;24.326;2023-05-16T00:57:26;98892.44;;;14.57
12430;BMP280;6279;42.192;24.326;2023-05-16T00:59:52;98894.00;;;14.46
12430;BMP280;6279;42.192;24.326;2023-05-16T01:02:17;98893.56;;;14.42
12430;BMP280;6279;42.192;24.326;2023-05-16T01:04:44;98898.88;;;14.48
12430;BMP280;6279;42.192;24.326;2023-05-16T01:07:10;98886.75;;;14.47
12430;BMP280;6279;42.192;24.326;2023-05-16T01:09:36;98889.13;;;14.36
12430;BMP280;6279;42.192;24.326;2023-05-16T01:12:12;98884.09;;;14.35
12430;BMP280;6279;42.192;24.326;2023-05-16T01:28:05;98873.88;;;14.46
12430;BMP280;6279;42.192;24.326;2023-05-16T01:30:34;98875.88;;;14.44
12430;BMP280;6279;42.192;24.326;2023-05-16T01:33:00;98869.03;;;14.43
12430;BMP280;6279;42.192;24.326;2023-05-16T01:35:25;98866.81;;;14.40
12430;BMP280;6279;42.192;24.326;2023-05-16T01:38:09;98859.75;;;14.34
12430;BMP280;6279;42.192;24.326;2023-05-16T01:40:47;98855.31;;;14.35
12430;BMP280;6279;42.192;24.326;2023-05-16T01:43:20;98858.06;;;14.27
12430;BMP280;6279;42.192;24.326;2023-05-16T01:45:54;98852.44;;;14.30
12430;BMP280;6279;42.192;24.326;2023-05-16T01:48:26;98851.69;;;14.36
12430;BMP280;6279;42.192;24.326;2023-05-16T01:50:55;98843.63;;;14.31
12430;BMP280;6279;42.192;24.326;2023-05-16T01:53:27;98841.94;;;14.17
12430;BMP280;6279;42.192;24.326;2023-05-16T01:55:56;98847.16;;;14.17
12430;BMP280;6279;42.192;24.326;2023-05-16T01:58:24;98842.47;;;14.06
12430;BMP280;6279;42.192;24.326;2023-05-16T02:00:53;98849.91;;;14.09
12430;BMP280;6279;42.192;24.326;2023-05-16T02:03:19;98846.09;;;14.12
12430;BMP280;6279;42.192;24.326;2023-05-16T02:05:44;98842.78;;;14.24
12430;BMP280;6279;42.192;24.326;2023-05-16T02:08:10;98844.00;;;14.28
12430;BMP280;6279;42.192;24.326;2023-05-16T02:10:35;98829.28;;;14.27
12430;BMP280;6279;42.192;24.326;2023-05-16T02:13:01;98831.28;;;14.19
12430;BMP280;6279;42.192;24.326;2023-05-16T02:15:26;98842.34;;;14.21
12430;BMP280;6279;42.192;24.326;2023-05-16T02:17:52;98840.06;;;14.11
12430;BMP280;6279;42.192;24.326;2023-05-16T02:20:17;98839.47;;;14.09
12430;BMP280;6279;42.192;24.326;2023-05-16T02:22:42;98836.72;;;14.17
12430;BMP280;6279;42.192;24.326;2023-05-16T02:25:08;98823.44;;;14.19
12430;BMP280;6279;42.192;24.326;2023-05-16T02:27:34;98824.03;;;14.14
12430;BMP280;6279;42.192;24.326;2023-05-16T02:30:00;98829.06;;;14.16
12430;BMP280;6279;42.192;24.326;2023-05-16T02:32:25;98824.22;;;14.13
12430;BMP280;6279;42.192;24.326;2023-05-16T02:34:51;98823.94;;;14.02
12430;BMP280;6279;42.192;24.326;2023-05-16T02:37:17;98822.09;;;13.96
12430;BMP280;6279;42.192;24.326;2023-05-16T02:39:42;98832.56;;;13.96
12430;BMP280;6279;42.192;24.326;2023-05-16T02:42:08;98829.31;;;13.94
12430;BMP280;6279;42.192;24.326;2023-05-16T02:44:33;98840.56;;;13.94
12430;BMP280;6279;42.192;24.326;2023-05-16T02:46:59;98842.38;;;13.94
12430;BMP280;6279;42.192;24.326;2023-05-16T02:49:24;98831.41;;;14.04
12430;BMP280;6279;42.192;24.326;2023-05-16T02:51:50;98831.81;;;14.08
12430;BMP280;6279;42.192;24.326;2023-05-16T02:54:16;98841.06;;;14.10
12430;BMP280;6279;42.192;24.326;2023-05-16T02:56:41;98828.38;;;14.07
12430;BMP280;6279;42.192;24.326;2023-05-16T02:59:06;98838.44;;;14.04
12430;BMP280;6279;42.192;24.326;2023-05-16T03:01:33;98835.41;;;14.01
12430;BMP280;6279;42.192;24.326;2023-05-16T03:03:58;98841.22;;;13.96
12430;BMP280;6279;42.192;24.326;2023-05-16T03:06:24;98842.84;;;14.03
12430;BMP280;6279;42.192;24.326;2023-05-16T03:08:52;98839.06;;;14.12
12430;BMP280;6279;42.192;24.326;2023-05-16T03:11:17;98845.88;;;14.07
12430;BMP280;6279;42.192;24.326;2023-05-16T03:13:48;98841.06;;;14.10
12430;BMP280;6279;42.192;24.326;2023-05-16T03:16:14;98842.66;;;14.05
12430;BMP280;6279;42.192;24.326;2023-05-16T03:18:41;98844.47;;;14.04
12430;BMP280;6279;42.192;24.326;2023-05-16T03:21:06;98849.53;;;14.12
12430;BMP280;6279;42.192;24.326;2023-05-16T03:23:32;98846.38;;;14.23
12430;BMP280;6279;42.192;24.326;2023-05-16T03:25:57;98849.22;;;14.28
12430;BMP280;6279;42.192;24.326;2023-05-16T03:28:23;98847.78;;;14.19
12430;BMP280;6279;42.192;24.326;2023-05-16T03:30:48;98852.41;;;14.17
12430;BMP280;6279;42.192;24.326;2023-05-16T03:33:14;98842.53;;;14.13
12430;BMP280;6279;42.192;24.326;2023-05-16T03:35:42;98843.13;;;14.15
12430;BMP280;6279;42.192;24.326;2023-05-16T03:38:07;98842.16;;;14.22
12430;BMP280;6279;42.192;24.326;2023-05-16T03:40:33;98840.56;;;14.27
12430;BMP280;6279;42.192;24.326;2023-05-16T03:42:58;98841.13;;;14.17
12430;BMP280;6279;42.192;24.326;2023-05-16T03:45:24;98841.53;;;14.14
12430;BMP280;6279;42.192;24.326;2023-05-16T03:47:49;98842.69;;;14.11
12430;BMP280;6279;42.192;24.326;2023-05-16T03:50:15;98841.69;;;14.12
12430;BMP280;6279;42.192;24.326;2023-05-16T03:52:40;98842.56;;;14.19
12430;BMP280;6279;42.192;24.326;2023-05-16T03:55:06;98837.72;;;14.16
12430;BMP280;6279;42.192;24.326;2023-05-16T03:57:32;98838.34;;;14.25
12430;BMP280;6279;42.192;24.326;2023-05-16T03:59:58;98835.34;;;14.27
12430;BMP280;6279;42.192;24.326;2023-05-16T04:02:24;98843.16;;;14.21
12430;BMP280;6279;42.192;24.326;2023-05-16T04:04:49;98832.78;;;14.34
12430;BMP280;6279;42.192;24.326;2023-05-16T04:07:15;98834.66;;;14.52
12430;BMP280;6279;42.192;24.326;2023-05-16T04:09:40;98829.69;;;14.70
12430;BMP280;6279;42.192;24.326;2023-05-16T04:12:06;98837.81;;;14.88
12430;BMP280;6279;42.192;24.326;2023-05-16T04:14:33;98830.63;;;15.09
12430;BMP280;6279;42.192;24.326;2023-05-16T04:16:58;98829.22;;;15.19
12430;BMP280;6279;42.192;24.326;2023-05-16T04:19:25;98836.28;;;15.12
12430;BMP280;6279;42.192;24.326;2023-05-16T04:21:50;98829.63;;;15.16
12430;BMP280;6279;42.192;24.326;2023-05-16T04:24:16;98839.69;;;15.19
12430;BMP280;6279;42.192;24.326;2023-05-16T04:26:42;98837.06;;;15.13
12430;BMP280;6279;42.192;24.326;2023-05-16T04:29:07;98826.44;;;15.20
12430;BMP280;6279;42.192;24.326;2023-05-16T04:31:33;98820.75;;;15.36
12430;BMP280;6279;42.192;24.326;2023-05-16T04:33:58;98820.19;;;15.59
12430;BMP280;6279;42.192;24.326;2023-05-16T04:36:23;98825.44;;;15.59
12430;BMP280;6279;42.192;24.326;2023-05-16T04:38:49;98829.03;;;15.65
12430;BMP280;6279;42.192;24.326;2023-05-16T04:41:15;98839.31;;;15.85
12430;BMP280;6279;42.192;24.326;2023-05-16T04:43:40;98835.47;;;15.94
12430;BMP280;6279;42.192;24.326;2023-05-16T04:46:06;98839.91;;;16.00
12430;BMP280;6279;42.192;24.326;2023-05-16T04:48:32;98844.50;;;16.23
12430;BMP280;6279;42.192;24.326;2023-05-16T04:50:58;98836.78;;;16.41
12430;BMP280;6279;42.192;24.326;2023-05-16T04:53:23;98836.13;;;16.58
12430;BMP280;6279;42.192;24.326;2023-05-16T04:55:49;98834.41;;;16.83
12430;BMP280;6279;42.192;24.326;2023-05-16T04:58:14;98833.41;;;17.20
12430;BMP280;6279;42.192;24.326;2023-05-16T05:00:40;98836.41;;;17.54
12430;BMP280;6279;42.192;24.326;2023-05-16T05:03:05;98832.63;;;17.68
12430;BMP280;6279;42.192;24.326;2023-05-16T05:05:31;98837.88;;;17.68
12430;BMP280;6279;42.192;24.326;2023-05-16T05:07:57;98838.75;;;17.62
12430;BMP280;6279;42.192;24.326;2023-05-16T05:10:23;98843.19;;;17.61
12430;BMP280;6279;42.192;24.326;2023-05-16T05:12:48;98840.44;;;17.50
12430;BMP280;6279;42.192;24.326;2023-05-16T05:15:13;98848.47;;;17.31
12430;BMP280;6279;42.192;24.326;2023-05-16T05:17:39;98839.16;;;17.05
12430;BMP280;6279;42.192;24.326;2023-05-16T05:20:05;98847.28;;;16.90
12430;BMP280;6279;42.192;24.326;2023-05-16T05:22:34;98823.56;;;16.67
12430;BMP280;6279;42.192;24.326;2023-05-16T05:25:00;98837.34;;;16.56
12430;BMP280;6279;42.192;24.326;2023-05-16T05:27:25;98837.84;;;16.34
12430;BMP280;6279;42.192;24.326;2023-05-16T05:29:51;98831.19;;;16.31
12430;BMP280;6279;42.192;24.326;2023-05-16T05:32:17;98828.34;;;16.26
12430;BMP280;6279;42.192;24.326;2023-05-16T05:34:42;98834.66;;;16.13
12430;BMP280;6279;42.192;24.326;2023-05-16T05:37:08;98852.00;;;16.01
12430;BMP280;6279;42.192;24.326;2023-05-16T05:39:33;98833.47;;;15.96
12430;BMP280;6279;42.192;24.326;2023-05-16T05:41:59;98831.66;;;16.03
12430;BMP280;6279;42.192;24.326;2023-05-16T05:44:26;98824.56;;;15.97
12430;BMP280;6279;42.192;24.326;2023-05-16T05:46:51;98821.94;;;15.97
12430;BMP280;6279;42.192;24.326;2023-05-16T05:49:17;98813.09;;;16.11
12430;BMP280;6279;42.192;24.326;2023-05-16T05:51:42;98815.88;;;16.16
12430;BMP280;6279;42.192;24.326;2023-05-16T05:54:08;98798.72;;;16.20
12430;BMP280;6279;42.192;24.326;2023-05-16T05:56:33;98815.69;;;16.17
12430;BMP280;6279;42.192;24.326;2023-05-16T05:58:59;98825.13;;;16.24
12430;BMP280;6279;42.192;24.326;2023-05-16T06:01:25;98818.47;;;16.22
12430;BMP280;6279;42.192;24.326;2023-05-16T06:03:51;98827.56;;;16.20
12430;BMP280;6279;42.192;24.326;2023-05-16T06:06:17;98834.00;;;16.36
12430;BMP280;6279;42.192;24.326;2023-05-16T06:08:42;98830.69;;;16.53
12430;BMP280;6279;42.192;24.326;2023-05-16T06:11:07;98829.69;;;16.54
12430;BMP280;6279;42.192;24.326;2023-05-16T06:13:33;98848.25;;;16.53
12430;BMP280;6279;42.192;24.326;2023-05-16T06:15:58;98844.41;;;16.55
12430;BMP280;6279;42.192;24.326;2023-05-16T06:18:24;98825.81;;;16.57
12430;BMP280;6279;42.192;24.326;2023-05-16T06:20:49;98815.03;;;16.77
12430;BMP280;6279;42.192;24.326;2023-05-16T06:23:16;98817.56;;;17.03
12430;BMP280;6279;42.192;24.326;2023-05-16T06:25:41;98824.88;;;17.25
12430;BMP280;6279;42.192;24.326;2023-05-16T06:28:07;98817.53;;;17.33
12430;BMP280;6279;42.192;24.326;2023-05-16T06:30:32;98816.41;;;17.47
12430;BMP280;6279;42.192;24.326;2023-05-16T06:32:57;98822.59;;;17.58
12430;BMP280;6279;42.192;24.326;2023-05-16T06:35:23;98805.50;;;17.67
12430;BMP280;6279;42.192;24.326;2023-05-16T06:37:48;98807.88;;;17.75
12430;BMP280;6279;42.192;24.326;2023-05-16T06:40:14;98805.41;;;17.80
12430;BMP280;6279;42.192;24.326;2023-05-16T06:42:39;98810.94;;;17.96
12430;BMP280;6279;42.192;24.326;2023-05-16T06:45:05;98822.50;;;18.13
12430;BMP280;6279;42.192;24.326;2023-05-16T06:47:31;98828.66;;;18.07
12430;BMP280;6279;42.192;24.326;2023-05-16T06:49:57;98817.59;;;18.16
12430;BMP280;6279;42.192;24.326;2023-05-16T06:52:22;98800.34;;;18.02
12430;BMP280;6279;42.192;24.326;2023-05-16T06:54:47;98781.06;;;18.08
12430;BMP280;6279;42.192;24.326;2023-05-16T06:57:13;98770.22;;;18.16
12430;BMP280;6279;42.192;24.326;2023-05-16T06:59:38;98753.06;;;17.96
12430;BMP280;6279;42.192;24.326;2023-05-16T07:02:04;98772.28;;;18.14
12430;BMP280;6279;42.192;24.326;2023-05-16T07:04:30;98783.53;;;18.21
12430;BMP280;6279;42.192;24.326;2023-05-16T07:06:56;98793.34;;;18.14
12430;BMP280;6279;42.192;24.326;2023-05-16T07:09:21;98809.84;;;18.21
12430;BMP280;6279;42.192;24.326;2023-05-16T07:11:46;98791.94;;;18.29
12430;BMP280;6279;42.192;24.326;2023-05-16T07:14:14;98787.34;;;18.43
12430;BMP280;6279;42.192;24.326;2023-05-16T07:16:40;98774.56;;;18.57
12430;BMP280;6279;42.192;24.326;2023-05-16T07:19:05;98776.75;;;18.78
12430;BMP280;6279;42.192;24.326;2023-05-16T07:21:30;98778.47;;;19.01
12430;BMP280;6279;42.192;24.326;2023-05-16T07:23:56;98795.81;;;19.20
12430;BMP280;6279;42.192;24.326;2023-05-16T07:26:21;98791.91;;;19.22
12430;BMP280;6279;42.192;24.326;2023-05-16T07:28:50;98791.38;;;19.32
12430;BMP280;6279;42.192;24.326;2023-05-16T07:31:16;98783.50;;;19.65
12430;BMP280;6279;42.192;24.326;2023-05-16T07:33:43;98778.59;;;20.02
12430;BMP280;6279;42.192;24.326;2023-05-16T07:36:09;98777.38;;;20.32
12430;BMP280;6279;42.192;24.326;2023-05-16T07:38:35;98773.00;;;20.49
12430;BMP280;6279;42.192;24.326;2023-05-16T07:41:00;98767.84;;;20.31
12430;BMP280;6279;42.192;24.326;2023-05-16T07:43:26;98757.63;;;20.46
12430;BMP280;6279;42.192;24.326;2023-05-16T07:45:51;98757.41;;;20.75
12430;BMP280;6279;42.192;24.326;2023-05-16T07:48:17;98758.63;;;21.27
12430;BMP280;6279;42.192;24.326;2023-05-16T07:50:42;98745.31;;;21.71
12430;BMP280;6279;42.192;24.326;2023-05-16T07:53:08;98733.91;;;22.02
12430;BMP280;6279;42.192;24.326;2023-05-16T07:55:34;98733.31;;;22.38
12430;BMP280;6279;42.192;24.326;2023-05-16T07:57:59;98748.34;;;22.74
12430;BMP280;6279;42.192;24.326;2023-05-16T08:00:25;98747.78;;;23.55
12430;BMP280;6279;42.192;24.326;2023-05-16T08:02:50;98758.59;;;23.79
12430;BMP280;6279;42.192;24.326;2023-05-16T08:05:16;98741.22;;;23.67
12430;BMP280;6279;42.192;24.326;2023-05-16T08:07:41;98748.50;;;22.68
12430;BMP280;6279;42.192;24.326;2023-05-16T08:10:07;98746.69;;;22.52
12430;BMP280;6279;42.192;24.326;2023-05-16T08:12:33;98745.91;;;22.31
12430;BMP280;6279;42.192;24.326;2023-05-16T08:14:58;98750.50;;;21.98
12430;BMP280;6279;42.192;24.326;2023-05-16T08:17:23;98753.44;;;21.48
12430;BMP280;6279;42.192;24.326;2023-05-16T08:19:49;98739.00;;;21.55
12430;BMP280;6279;42.192;24.326;2023-05-16T08:22:14;98736.41;;;21.76
12430;BMP280;6279;42.192;24.326;2023-05-16T08:24:40;98728.88;;;21.85
12430;BMP280;6279;42.192;24.326;2023-05-16T08:27:06;98732.56;;;22.21
12430;BMP280;6279;42.192;24.326;2023-05-16T08:29:31;98730.63;;;22.59
12430;BMP280;6279;42.192;24.326;2023-05-16T08:31:56;98717.44;;;23.15
12430;BMP280;6279;42.192;24.326;2023-05-16T08:34:22;98731.38;;;22.75
12430;BMP280;6279;42.192;24.326;2023-05-16T08:36:47;98730.03;;;22.31
12430;BMP280;6279;42.192;24.326;2023-05-16T08:39:13;98720.94;;;22.69
12430;BMP280;6279;42.192;24.326;2023-05-16T08:41:39;98718.03;;;22.91
12430;BMP280;6279;42.192;24.326;2023-05-16T08:44:05;98715.72;;;22.74
12430;BMP280;6279;42.192;24.326;2023-05-16T08:46:34;98734.03;;;22.12
12430;BMP280;6279;42.192;24.326;2023-05-16T08:49:03;98724.28;;;21.97
12430;BMP280;6279;42.192;24.326;2023-05-16T08:51:32;98730.56;;;21.58
12430;BMP280;6279;42.192;24.326;2023-05-16T08:54:05;98728.16;;;21.73
12430;BMP280;6279;42.192;24.326;2023-05-16T08:56:35;98698.94;;;21.84
12430;BMP280;6279;42.192;24.326;2023-05-16T08:59:02;98694.56;;;21.57
12430;BMP280;6279;42.192;24.326;2023-05-16T09:01:29;98668.88;;;21.21
12430;BMP280;6279;42.192;24.326;2023-05-16T09:03:57;98665.16;;;21.38
12430;BMP280;6279;42.192;24.326;2023-05-16T09:06:22;98706.59;;;21.65
12430;BMP280;6279;42.192;24.326;2023-05-16T09:08:49;98716.59;;;21.63
12430;BMP280;6279;42.192;24.326;2023-05-16T09:11:15;98702.78;;;21.77
12430;BMP280;6279;42.192;24.326;2023-05-16T09:13:40;98706.63;;;21.86
12430;BMP280;6279;42.192;24.326;2023-05-16T09:16:16;98710.97;;;22.34
12430;BMP280;6279;42.192;24.326;2023-05-16T09:18:44;98692.66;;;22.74
12430;BMP280;6279;42.192;24.326;2023-05-16T09:21:10;98713.56;;;22.71
12430;BMP280;6279;42.192;24.326;2023-05-16T09:23:36;98725.28;;;22.33
12430;BMP280;6279;42.192;24.326;2023-05-16T09:26:04;98745.97;;;21.61
12430;BMP280;6279;42.192;24.326;2023-05-16T09:28:30;98728.09;;;21.20
12430;BMP280;6279;42.192;24.326;2023-05-16T09:30:56;98719.34;;;21.19
12430;BMP280;6279;42.192;24.326;2023-05-16T09:33:26;98730.69;;;21.04
12430;BMP280;6279;42.192;24.326;2023-05-16T09:35:59;98729.66;;;21.05
12430;BMP280;6279;42.192;24.326;2023-05-16T09:38:26;98699.16;;;21.13
12430;BMP280;6279;42.192;24.326;2023-05-16T09:40:53;98714.13;;;20.92
12430;BMP280;6279;42.192;24.326;2023-05-16T09:43:22;98714.34;;;20.90
12430;BMP280;6279;42.192;24.326;2023-05-16T09:45:48;98715.97;;;20.64
12430;BMP280;6279;42.192;24.326;2023-05-16T09:48:14;98712.63;;;20.30
12430;BMP280;6279;42.192;24.326;2023-05-16T09:50:49;98697.75;;;20.13
12430;BMP280;6279;42.192;24.326;2023-05-16T09:53:28;98702.19;;;19.85
12430;BMP280;6279;42.192;24.326;2023-05-16T09:56:09;98682.16;;;20.11
12430;BMP280;6279;42.192;24.326;2023-05-16T09:58:38;98689.19;;;20.06
12430;BMP280;6279;42.192;24.326;2023-05-16T10:01:05;98686.84;;;20.21
12430;BMP280;6279;42.192;24.326;2023-05-16T10:03:33;98681.75;;;20.30
12430;BMP280;6279;42.192;24.326;2023-05-16T10:05:59;98690.97;;;20.17
12430;BMP280;6279;42.192;24.326;2023-05-16T10:08:26;98682.53;;;20.03
12430;BMP280;6279;42.192;24.326;2023-05-16T10:10:53;98674.97;;;19.96
12430;BMP280;6279;42.192;24.326;2023-05-16T10:13:21;98663.03;;;19.82
12430;BMP280;6279;42.192;24.326;2023-05-16T10:15:48;98657.34;;;19.74
12430;BMP280;6279;42.192;24.326;2023-05-16T10:18:15;98654.31;;;19.81
12430;BMP280;6279;42.192;24.326;2023-05-16T10:20:43;98647.69;;;19.79
12430;BMP280;6279;42.192;24.326;2023-05-16T10:23:12;98643.50;;;19.94
12430;BMP280;6279;42.192;24.326;2023-05-16T10:25:40;98645.56;;;20.03
12430;BMP280;6279;42.192;24.326;2023-05-16T10:28:07;98636.78;;;20.14
12430;BMP280;6279;42.192;24.326;2023-05-16T10:30:33;98637.78;;;20.24
12430;BMP280;6279;42.192;24.326;2023-05-16T10:33:00;98646.19;;;20.21
12430;BMP280;6279;42.192;24.326;2023-05-16T10:35:26;98636.59;;;20.43
12430;BMP280;6279;42.192;24.326;2023-05-16T10:37:52;98648.75;;;20.44
12430;BMP280;6279;42.192;24.326;2023-05-16T10:40:19;98651.44;;;20.60
12430;BMP280;6279;42.192;24.326;2023-05-16T10:43:00;98643.41;;;20.71
12430;BMP280;6279;42.192;24.326;2023-05-16T10:45:25;98631.91;;;20.77
12430;BMP280;6279;42.192;24.326;2023-05-16T10:48:00;98633.34;;;21.01
12430;BMP280;6279;42.192;24.326;2023-05-16T10:50:42;98632.13;;;21.08
12430;BMP280;6279;42.192;24.326;2023-05-16T10:53:19;98639.81;;;21.09
12430;BMP280;6279;42.192;24.326;2023-05-16T10:58:43;98624.44;;;20.58
12430;BMP280;6279;42.192;24.326;2023-05-16T11:04:10;98624.47;;;20.74
12430;BMP280;6279;42.192;24.326;2023-05-16T11:11:45;98609.19;;;22.04
12430;BMP280;6279;42.192;24.326;2023-05-16T11:16:59;98626.75;;;22.36
12430;BMP280;6279;42.192;24.326;2023-05-16T11:24:37;98618.41;;;22.74
12430;BMP280;6279;42.192;24.326;2023-05-16T11:27:04;98618.47;;;23.15
12430;BMP280;6279;42.192;24.326;2023-05-16T11:29:34;98631.44;;;23.42
12430;BMP280;6279;42.192;24.326;2023-05-16T11:32:02;98627.84;;;22.65
12430;BMP280;6279;42.192;24.326;2023-05-16T11:34:29;98621.66;;;22.55
12430;BMP280;6279;42.192;24.326;2023-05-16T11:36:55;98619.38;;;22.38
12430;BMP280;6279;42.192;24.326;2023-05-16T11:39:21;98608.13;;;21.84
12430;BMP280;6279;42.192;24.326;2023-05-16T11:41:49;98612.91;;;21.87
12430;BMP280;6279;42.192;24.326;2023-05-16T11:44:15;98624.38;;;21.71
12430;BMP280;6279;42.192;24.326;2023-05-16T11:46:41;98612.81;;;21.08
12430;BMP280;6279;42.192;24.326;2023-05-16T11:49:08;98615.81;;;21.11
12430;BMP280;6279;42.192;24.326;2023-05-16T11:51:36;98608.75;;;21.32
12430;BMP280;6279;42.192;24.326;2023-05-16T11:54:02;98602.97;;;21.19
12430;BMP280;6279;42.192;24.326;2023-05-16T11:56:29;98601.78;;;21.27
12430;BMP280;6279;42.192;24.326;2023-05-16T11:58:58;98619.88;;;21.34
12430;BMP280;6279;42.192;24.326;2023-05-16T12:01:23;98636.63;;;20.91
12430;BMP280;6279;42.192;24.326;2023-05-16T12:03:55;98602.66;;;20.84
12430;BMP280;6279;42.192;24.326;2023-05-16T12:06:24;98635.34;;;20.62
12430;BMP280;6279;42.192;24.326;2023-05-16T12:08:51;98628.44;;;20.33
12430;BMP280;6279;42.192;24.326;2023-05-16T12:11:17;98608.72;;;20.52
12430;BMP280;6279;42.192;24.326;2023-05-16T12:13:43;98603.78;;;20.71
12430;BMP280;6279;42.192;24.326;2023-05-16T12:16:10;98600.91;;;20.73
12430;BMP280;6279;42.192;24.326;2023-05-16T12:18:37;98582.41;;;20.89
12430;BMP280;6279;42.192;24.326;2023-05-16T12:21:05;98590.88;;;20.91
12430;BMP280;6279;42.192;24.326;2023-05-16T12:23:34;98574.88;;;20.97
12430;BMP280;6279;42.192;24.326;2023-05-16T12:25:59;98552.16;;;21.33
12430;BMP280;6279;42.192;24.326;2023-05-16T12:28:31;98544.72;;;21.52
12430;BMP280;6279;42.192;24.326;2023-05-16T12:31:01;98526.78;;;21.79
12430;BMP280;6279;42.192;24.326;2023-05-16T12:33:27;98530.34;;;21.90
12430;BMP280;6279;42.192;24.326;2023-05-16T12:35:52;98526.84;;;22.05
12430;BMP280;6279;42.192;24.326;2023-05-16T12:38:19;98533.72;;;22.06
12430;BMP280;6279;42.192;24.326;2023-05-16T12:40:45;98536.53;;;22.21
12430;BMP280;6279;42.192;24.326;2023-05-16T12:43:22;98549.13;;;22.35
12430;BMP280;6279;42.192;24.326;2023-05-16T12:45:53;98529.59;;;22.72
12430;BMP280;6279;42.192;24.326;2023-05-16T12:48:19;98546.91;;;22.84
12430;BMP280;6279;42.192;24.326;2023-05-16T12:50:45;98555.50;;;23.01
12430;BMP280;6279;42.192;24.326;2023-05-16T12:53:12;98565.44;;;23.20
12430;BMP280;6279;42.192;24.326;2023-05-16T12:55:38;98573.72;;;23.28
12430;BMP280;6279;42.192;24.326;2023-05-16T12:58:04;98563.28;;;23.17
12430;BMP280;6279;42.192;24.326;2023-05-16T13:00:30;98564.84;;;23.49
12430;BMP280;6279;42.192;24.326;2023-05-16T13:02:58;98554.84;;;23.75
12430;BMP280;6279;42.192;24.326;2023-05-16T13:05:24;98543.06;;;24.26
12430;BMP280;6279;42.192;24.326;2023-05-16T13:07:50;98544.75;;;24.71
12430;BMP280;6279;42.192;24.326;2023-05-16T13:10:18;98553.47;;;24.33
12430;BMP280;6279;42.192;24.326;2023-05-16T13:12:44;98530.34;;;24.67
12430;BMP280;6279;42.192;24.326;2023-05-16T13:15:10;98519.69;;;25.02
12430;BMP280;6279;42.192;24.326;2023-05-16T13:17:40;98521.22;;;25.37
12430;BMP280;6279;42.192;24.326;2023-05-16T13:20:06;98532.88;;;25.51
12430;BMP280;6279;42.192;24.326;2023-05-16T13:22:41;98520.75;;;25.01
12430;BMP280;6279;42.192;24.326;2023-05-16T13:25:08;98533.56;;;24.69
12430;BMP280;6279;42.192;24.326;2023-05-16T13:27:34;98528.56;;;23.69
12430;BMP280;6279;42.192;24.326;2023-05-16T13:30:00;98515.53;;;23.12
12430;BMP280;6279;42.192;24.326;2023-05-16T13:32:25;98518.28;;;22.55
12430;BMP280;6279;42.192;24.326;2023-05-16T13:34:51;98505.97;;;22.40
12430;BMP280;6279;42.192;24.326;2023-05-16T13:37:17;98518.59;;;22.33
12430;BMP280;6279;42.192;24.326;2023-05-16T13:39:43;98507.06;;;22.74
12430;BMP280;6279;42.192;24.326;2023-05-16T13:42:08;98505.31;;;22.89
12430;BMP280;6279;42.192;24.326;2023-05-16T13:44:34;98505.91;;;23.01
12430;BMP280;6279;42.192;24.326;2023-05-16T13:46:59;98512.22;;;22.90
12430;BMP280;6279;42.192;24.326;2023-05-16T13:49:25;98522.84;;;22.95
12430;BMP280;6279;42.192;24.326;2023-05-16T13:51:51;98512.34;;;23.15
12430;BMP280;6279;42.192;24.326;2023-05-16T13:54:17;98516.41;;;22.86
12430;BMP280;6279;42.192;24.326;2023-05-16T13:56:43;98511.16;;;22.91
12430;BMP280;6279;42.192;24.326;2023-05-16T13:59:09;98521.16;;;22.80
12430;BMP280;6279;42.192;24.326;2023-05-16T14:01:34;98529.72;;;22.91
12430;BMP280;6279;42.192;24.326;2023-05-16T14:04:01;98522.63;;;23.02
12430;BMP280;6279;42.192;24.326;2023-05-16T14:06:26;98524.97;;;22.93
12430;BMP280;6279;42.192;24.326;2023-05-16T14:08:52;98539.44;;;22.81
12430;BMP280;6279;42.192;24.326;2023-05-16T14:11:17;98528.09;;;22.55
12430;BMP280;6279;42.192;24.326;2023-05-16T14:13:44;98536.53;;;22.21
12430;BMP280;6279;42.192;24.326;2023-05-16T14:16:10;98540.22;;;21.94
12430;BMP280;6279;42.192;24.326;2023-05-16T14:18:35;98534.91;;;21.73
12430;BMP280;6279;42.192;24.326;2023-05-16T14:21:01;98542.94;;;21.57
12430;BMP280;6279;42.192;24.326;2023-05-16T14:23:26;98546.72;;;21.45
12430;BMP280;6279;42.192;24.326;2023-05-16T14:25:52;98553.75;;;21.34
12430;BMP280;6279;42.192;24.326;2023-05-16T14:28:18;98552.09;;;21.29
12430;BMP280;6279;42.192;24.326;2023-05-16T14:30:43;98548.31;;;21.25
12430;BMP280;6279;42.192;24.326;2023-05-16T14:33:08;98554.59;;;21.03
12430;BMP280;6279;42.192;24.326;2023-05-16T14:35:34;98552.38;;;20.95
12430;BMP280;6279;42.192;24.326;2023-05-16T14:38:02;98545.50;;;20.94